Airfield :
LOGIN :

Register | Disclaimer

   EN    FR    IT 

 










Legend :    VFR   Marginal VFR   IFR   Intensive IFR   Very Intensive IFR
Visi :
Ceiling :
>= 8 km
>= 3000ft
5 to 8 km
1000 to 3000 ft
1500m to 5 km
500 to 1000 ft
800 to 1500m
200 to 500 ft
< 800m
< 200 ft
Symbols :   Thunderstorms  Fog  Heavy snow  Heavy precipitations  Wind > 20 kt
SIGMETs :     Misc.  Thunderstorms  Icing  Turbulence  Mountain Waves  Volcanic Ashes







- Airport Elevation : 1020 ft
- IATA code : ILZ


LZZI - Žilina

CURRENT METAR :
  • 221200Z 07016KT 9999 FEW033 M00/M07 Q1017

EXPIRED METARs :
  • 221130Z 05016KT 9999 FEW032 00/M07 Q1017
  • 221100Z 06018KT 9999 FEW032 M01/M08 Q1017
  • 221030Z 05018KT 9999 FEW032 M01/M08 Q1017
  • 221000Z 05018KT 9999 FEW032 M01/M07 Q1017
  • 220930Z 07018KT 9999 FEW029 M01/M07 Q1017

TAF TAF LZZI
Valid from the 22 at 12:00 until the 22 at 21:00 UTC


221100Z 2212/2221 06015KT 9999 SCT030
TEMPO 2212/2215 04020KT CAVOK
BECMG 2215/2217 BKN030 BKN100
No reported NOTAMs for that airfield.



MET'MAP, your aeronautical weather chart ! - Copyright ORBIFLY December 2007 - Disclaimer

ORBIFLY MET'MAP TEAM :

Programming & Development : Alexandra Zaïnal
Concept & Development : Baudouin d'Aumeries
Co-Development & Prog : Marc-Olivier Méhu
Technical & hardware support : Manuel Goepfert

Contact : metmap@orbifly.com




SOURCES & CREDITS :

   NOAA